sensor_id;sensor_type;location;lat;lon;timestamp;P1;durP1;ratioP1;P2;durP2;ratioP2
3789;SDS011;1910;49.042;9.028;2023-07-22T00:01:05;4.97;;;2.77;;
3789;SDS011;1910;49.042;9.028;2023-07-22T00:03:31;4.60;;;3.07;;
3789;SDS011;1910;49.042;9.028;2023-07-22T00:06:06;9.43;;;3.47;;
3789;SDS011;1910;49.042;9.028;2023-07-22T00:08:36;4.90;;;2.80;;
3789;SDS011;1910;49.042;9.028;2023-07-22T00:11:03;4.55;;;3.10;;
3789;SDS011;1910;49.042;9.028;2023-07-22T00:13:30;7.28;;;4.30;;
3789;SDS011;1910;49.042;9.028;2023-07-22T00:15:56;3.88;;;2.85;;
3789;SDS011;1910;49.042;9.028;2023-07-22T00:18:24;5.47;;;3.10;;
3789;SDS011;1910;49.042;9.028;2023-07-22T00:20:49;4.27;;;2.77;;
3789;SDS011;1910;49.042;9.028;2023-07-22T00:23:15;4.70;;;3.50;;
3789;SDS011;1910;49.042;9.028;2023-07-22T00:25:41;4.10;;;2.70;;
3789;SDS011;1910;49.042;9.028;2023-07-22T00:28:07;3.23;;;2.80;;
3789;SDS011;1910;49.042;9.028;2023-07-22T00:30:33;3.83;;;2.60;;
3789;SDS011;1910;49.042;9.028;2023-07-22T00:33:00;4.90;;;3.20;;
3789;SDS011;1910;49.042;9.028;2023-07-22T00:35:26;4.27;;;2.80;;
3789;SDS011;1910;49.042;9.028;2023-07-22T00:37:52;3.40;;;3.10;;
3789;SDS011;1910;49.042;9.028;2023-07-22T00:40:17;4.00;;;3.00;;
3789;SDS011;1910;49.042;9.028;2023-07-22T00:42:44;4.33;;;2.70;;
3789;SDS011;1910;49.042;9.028;2023-07-22T00:45:10;3.10;;;2.77;;
3789;SDS011;1910;49.042;9.028;2023-07-22T00:47:36;5.20;;;3.17;;
3789;SDS011;1910;49.042;9.028;2023-07-22T00:50:02;4.90;;;2.80;;
3789;SDS011;1910;49.042;9.028;2023-07-22T00:52:29;3.33;;;2.73;;
3789;SDS011;1910;49.042;9.028;2023-07-22T00:54:54;5.97;;;3.03;;
3789;SDS011;1910;49.042;9.028;2023-07-22T00:57:21;5.97;;;3.27;;
3789;SDS011;1910;49.042;9.028;2023-07-22T00:59:47;3.70;;;3.30;;
3789;SDS011;1910;49.042;9.028;2023-07-22T01:02:13;5.33;;;3.50;;
3789;SDS011;1910;49.042;9.028;2023-07-22T01:04:39;6.57;;;2.90;;
3789;SDS011;1910;49.042;9.028;2023-07-22T01:07:05;5.60;;;3.90;;
3789;SDS011;1910;49.042;9.028;2023-07-22T01:09:35;5.00;;;3.40;;
3789;SDS011;1910;49.042;9.028;2023-07-22T01:12:02;4.33;;;2.87;;
3789;SDS011;1910;49.042;9.028;2023-07-22T01:14:27;3.47;;;3.00;;
3789;SDS011;1910;49.042;9.028;2023-07-22T01:16:53;4.83;;;3.27;;
3789;SDS011;1910;49.042;9.028;2023-07-22T01:19:19;4.83;;;3.47;;
3789;SDS011;1910;49.042;9.028;2023-07-22T01:21:45;4.77;;;3.50;;
3789;SDS011;1910;49.042;9.028;2023-07-22T01:24:12;4.95;;;2.72;;
3789;SDS011;1910;49.042;9.028;2023-07-22T01:26:38;6.93;;;3.07;;
3789;SDS011;1910;49.042;9.028;2023-07-22T01:29:04;7.72;;;3.90;;
3789;SDS011;1910;49.042;9.028;2023-07-22T01:31:31;4.07;;;3.20;;
3789;SDS011;1910;49.042;9.028;2023-07-22T01:33:59;4.43;;;4.03;;
3789;SDS011;1910;49.042;9.028;2023-07-22T01:36:25;6.30;;;4.50;;
3789;SDS011;1910;49.042;9.028;2023-07-22T01:38:50;6.47;;;3.50;;
3789;SDS011;1910;49.042;9.028;2023-07-22T01:41:19;5.25;;;4.25;;
3789;SDS011;1910;49.042;9.028;2023-07-22T01:43:44;4.87;;;4.40;;
3789;SDS011;1910;49.042;9.028;2023-07-22T01:46:10;5.63;;;4.70;;
3789;SDS011;1910;49.042;9.028;2023-07-22T01:48:36;4.83;;;4.20;;
3789;SDS011;1910;49.042;9.028;2023-07-22T01:51:01;5.60;;;4.73;;
3789;SDS011;1910;49.042;9.028;2023-07-22T01:53:28;4.60;;;3.65;;
3789;SDS011;1910;49.042;9.028;2023-07-22T01:55:54;5.57;;;3.40;;
3789;SDS011;1910;49.042;9.028;2023-07-22T01:58:19;4.97;;;3.27;;
3789;SDS011;1910;49.042;9.028;2023-07-22T02:00:49;8.43;;;3.33;;
3789;SDS011;1910;49.042;9.028;2023-07-22T02:03:15;7.07;;;3.13;;
3789;SDS011;1910;49.042;9.028;2023-07-22T02:05:40;3.30;;;3.00;;
3789;SDS011;1910;49.042;9.028;2023-07-22T02:08:06;6.70;;;3.00;;
3789;SDS011;1910;49.042;9.028;2023-07-22T02:10:32;2.63;;;2.43;;
3789;SDS011;1910;49.042;9.028;2023-07-22T02:12:57;6.40;;;2.83;;
3789;SDS011;1910;49.042;9.028;2023-07-22T02:15:23;3.60;;;2.87;;
3789;SDS011;1910;49.042;9.028;2023-07-22T02:17:49;4.33;;;3.90;;
3789;SDS011;1910;49.042;9.028;2023-07-22T02:20:15;4.88;;;3.45;;
3789;SDS011;1910;49.042;9.028;2023-07-22T02:22:42;4.43;;;2.80;;
3789;SDS011;1910;49.042;9.028;2023-07-22T02:25:08;7.43;;;3.20;;
3789;SDS011;1910;49.042;9.028;2023-07-22T02:27:35;3.10;;;2.80;;
3789;SDS011;1910;49.042;9.028;2023-07-22T02:30:01;3.63;;;2.67;;
3789;SDS011;1910;49.042;9.028;2023-07-22T02:32:29;3.73;;;3.10;;
3789;SDS011;1910;49.042;9.028;2023-07-22T02:34:54;5.33;;;3.23;;
3789;SDS011;1910;49.042;9.028;2023-07-22T02:37:20;4.23;;;3.47;;
3789;SDS011;1910;49.042;9.028;2023-07-22T02:39:46;7.90;;;2.80;;
3789;SDS011;1910;49.042;9.028;2023-07-22T02:42:11;3.97;;;2.80;;
3789;SDS011;1910;49.042;9.028;2023-07-22T02:44:37;3.47;;;2.40;;
3789;SDS011;1910;49.042;9.028;2023-07-22T02:47:02;3.60;;;2.60;;
3789;SDS011;1910;49.042;9.028;2023-07-22T02:49:28;5.80;;;3.67;;
3789;SDS011;1910;49.042;9.028;2023-07-22T02:51:53;3.37;;;2.73;;
3789;SDS011;1910;49.042;9.028;2023-07-22T02:54:19;6.20;;;3.40;;
3789;SDS011;1910;49.042;9.028;2023-07-22T02:56:45;6.23;;;4.30;;
3789;SDS011;1910;49.042;9.028;2023-07-22T02:59:10;5.33;;;3.80;;
3789;SDS011;1910;49.042;9.028;2023-07-22T03:01:36;4.60;;;3.33;;
3789;SDS011;1910;49.042;9.028;2023-07-22T03:04:02;4.60;;;3.60;;
3789;SDS011;1910;49.042;9.028;2023-07-22T03:06:29;4.35;;;2.75;;
3789;SDS011;1910;49.042;9.028;2023-07-22T03:08:55;5.65;;;2.85;;
3789;SDS011;1910;49.042;9.028;2023-07-22T03:11:22;3.80;;;2.75;;
3789;SDS011;1910;49.042;9.028;2023-07-22T03:13:50;2.55;;;2.35;;
3789;SDS011;1910;49.042;9.028;2023-07-22T03:16:15;5.23;;;3.33;;
3789;SDS011;1910;49.042;9.028;2023-07-22T03:18:41;7.23;;;4.03;;
3789;SDS011;1910;49.042;9.028;2023-07-22T03:21:08;6.18;;;3.50;;
3789;SDS011;1910;49.042;9.028;2023-07-22T03:23:34;5.43;;;4.30;;
3789;SDS011;1910;49.042;9.028;2023-07-22T03:25:59;4.97;;;3.60;;
3789;SDS011;1910;49.042;9.028;2023-07-22T03:28:25;10.77;;;3.27;;
3789;SDS011;1910;49.042;9.028;2023-07-22T03:30:51;6.10;;;4.07;;
3789;SDS011;1910;49.042;9.028;2023-07-22T03:33:17;3.55;;;2.92;;
3789;SDS011;1910;49.042;9.028;2023-07-22T03:35:43;11.03;;;4.30;;
3789;SDS011;1910;49.042;9.028;2023-07-22T03:38:09;6.80;;;3.80;;
3789;SDS011;1910;49.042;9.028;2023-07-22T03:40:35;3.37;;;2.83;;
3789;SDS011;1910;49.042;9.028;2023-07-22T03:43:02;4.97;;;3.22;;
3789;SDS011;1910;49.042;9.028;2023-07-22T03:45:28;6.60;;;3.23;;
3789;SDS011;1910;49.042;9.028;2023-07-22T03:47:57;3.57;;;2.30;;
3789;SDS011;1910;49.042;9.028;2023-07-22T03:50:24;4.65;;;2.65;;
3789;SDS011;1910;49.042;9.028;2023-07-22T03:52:50;2.53;;;2.28;;
3789;SDS011;1910;49.042;9.028;2023-07-22T03:55:15;4.20;;;2.57;;
3789;SDS011;1910;49.042;9.028;2023-07-22T03:57:41;3.30;;;2.23;;
3789;SDS011;1910;49.042;9.028;2023-07-22T04:00:07;4.97;;;4.10;;
3789;SDS011;1910;49.042;9.028;2023-07-22T04:02:34;6.57;;;5.13;;
3789;SDS011;1910;49.042;9.028;2023-07-22T04:05:00;6.30;;;3.90;;
3789;SDS011;1910;49.042;9.028;2023-07-22T04:07:26;4.77;;;3.93;;
3789;SDS011;1910;49.042;9.028;2023-07-22T04:09:51;5.73;;;5.13;;
3789;SDS011;1910;49.042;9.028;2023-07-22T04:12:17;7.70;;;5.40;;
3789;SDS011;1910;49.042;9.028;2023-07-22T04:14:43;8.17;;;5.80;;
3789;SDS011;1910;49.042;9.028;2023-07-22T04:17:08;5.50;;;4.57;;
3789;SDS011;1910;49.042;9.028;2023-07-22T04:19:34;6.97;;;5.40;;
3789;SDS011;1910;49.042;9.028;2023-07-22T04:22:00;8.63;;;3.93;;
3789;SDS011;1910;49.042;9.028;2023-07-22T04:24:29;7.20;;;4.50;;
3789;SDS011;1910;49.042;9.028;2023-07-22T04:26:56;5.30;;;4.20;;
3789;SDS011;1910;49.042;9.028;2023-07-22T04:29:21;6.70;;;4.30;;
3789;SDS011;1910;49.042;9.028;2023-07-22T04:31:47;5.00;;;3.63;;
3789;SDS011;1910;49.042;9.028;2023-07-22T04:34:13;5.47;;;3.80;;
3789;SDS011;1910;49.042;9.028;2023-07-22T04:36:38;3.87;;;2.67;;
3789;SDS011;1910;49.042;9.028;2023-07-22T04:39:04;5.70;;;3.10;;
3789;SDS011;1910;49.042;9.028;2023-07-22T04:41:30;4.43;;;3.30;;
3789;SDS011;1910;49.042;9.028;2023-07-22T04:43:56;5.73;;;3.00;;
3789;SDS011;1910;49.042;9.028;2023-07-22T04:46:23;3.80;;;2.77;;
3789;SDS011;1910;49.042;9.028;2023-07-22T04:48:49;2.50;;;2.20;;
3789;SDS011;1910;49.042;9.028;2023-07-22T04:51:15;3.57;;;2.43;;
3789;SDS011;1910;49.042;9.028;2023-07-22T04:53:40;4.57;;;2.93;;
3789;SDS011;1910;49.042;9.028;2023-07-22T04:56:06;3.67;;;2.40;;
3789;SDS011;1910;49.042;9.028;2023-07-22T04:58:31;6.60;;;2.70;;
3789;SDS011;1910;49.042;9.028;2023-07-22T05:00:57;4.40;;;2.70;;
3789;SDS011;1910;49.042;9.028;2023-07-22T05:03:23;4.37;;;3.13;;
3789;SDS011;1910;49.042;9.028;2023-07-22T05:05:51;3.23;;;2.70;;
3789;SDS011;1910;49.042;9.028;2023-07-22T05:08:17;3.33;;;2.80;;
3789;SDS011;1910;49.042;9.028;2023-07-22T05:10:43;5.73;;;3.47;;
3789;SDS011;1910;49.042;9.028;2023-07-22T05:13:08;4.87;;;3.10;;
3789;SDS011;1910;49.042;9.028;2023-07-22T05:15:34;5.73;;;3.70;;
3789;SDS011;1910;49.042;9.028;2023-07-22T05:18:00;4.20;;;3.73;;
3789;SDS011;1910;49.042;9.028;2023-07-22T05:20:25;14.33;;;3.87;;
3789;SDS011;1910;49.042;9.028;2023-07-22T05:22:51;5.43;;;3.70;;
3789;SDS011;1910;49.042;9.028;2023-07-22T05:25:17;5.03;;;3.43;;
3789;SDS011;1910;49.042;9.028;2023-07-22T05:27:43;4.63;;;4.00;;
3789;SDS011;1910;49.042;9.028;2023-07-22T05:30:08;8.40;;;4.07;;
3789;SDS011;1910;49.042;9.028;2023-07-22T05:32:34;9.60;;;4.63;;
3789;SDS011;1910;49.042;9.028;2023-07-22T05:35:00;6.40;;;4.50;;
3789;SDS011;1910;49.042;9.028;2023-07-22T05:37:30;6.80;;;4.20;;
3789;SDS011;1910;49.042;9.028;2023-07-22T05:39:56;6.20;;;4.10;;
3789;SDS011;1910;49.042;9.028;2023-07-22T05:42:21;4.50;;;4.07;;
3789;SDS011;1910;49.042;9.028;2023-07-22T05:44:48;3.57;;;3.00;;
3789;SDS011;1910;49.042;9.028;2023-07-22T05:47:13;4.47;;;4.07;;
3789;SDS011;1910;49.042;9.028;2023-07-22T05:49:39;4.10;;;3.30;;
3789;SDS011;1910;49.042;9.028;2023-07-22T05:52:05;4.33;;;3.57;;
3789;SDS011;1910;49.042;9.028;2023-07-22T05:54:31;5.20;;;3.80;;
3789;SDS011;1910;49.042;9.028;2023-07-22T05:56:56;4.80;;;3.53;;
3789;SDS011;1910;49.042;9.028;2023-07-22T05:59:22;4.67;;;4.27;;
3789;SDS011;1910;49.042;9.028;2023-07-22T06:01:48;10.63;;;7.00;;
3789;SDS011;1910;49.042;9.028;2023-07-22T06:04:13;5.37;;;4.33;;
3789;SDS011;1910;49.042;9.028;2023-07-22T06:06:39;10.17;;;4.90;;
3789;SDS011;1910;49.042;9.028;2023-07-22T06:09:05;7.63;;;5.07;;
3789;SDS011;1910;49.042;9.028;2023-07-22T06:11:31;6.93;;;4.27;;
3789;SDS011;1910;49.042;9.028;2023-07-22T06:13:56;5.83;;;4.10;;
3789;SDS011;1910;49.042;9.028;2023-07-22T06:16:22;4.70;;;4.03;;
3789;SDS011;1910;49.042;9.028;2023-07-22T06:18:47;4.53;;;3.60;;
3789;SDS011;1910;49.042;9.028;2023-07-22T06:21:13;4.80;;;4.13;;
3789;SDS011;1910;49.042;9.028;2023-07-22T06:23:38;5.97;;;3.53;;
3789;SDS011;1910;49.042;9.028;2023-07-22T06:26:05;5.10;;;3.73;;
3789;SDS011;1910;49.042;9.028;2023-07-22T06:28:31;5.33;;;4.33;;
3789;SDS011;1910;49.042;9.028;2023-07-22T06:30:57;3.70;;;2.87;;
3789;SDS011;1910;49.042;9.028;2023-07-22T06:33:23;12.20;;;4.53;;
3789;SDS011;1910;49.042;9.028;2023-07-22T06:35:49;5.50;;;3.20;;
3789;SDS011;1910;49.042;9.028;2023-07-22T06:38:15;4.80;;;4.10;;
3789;SDS011;1910;49.042;9.028;2023-07-22T06:40:41;4.30;;;3.40;;
3789;SDS011;1910;49.042;9.028;2023-07-22T06:43:06;4.57;;;3.87;;
3789;SDS011;1910;49.042;9.028;2023-07-22T06:45:32;3.57;;;3.27;;
3789;SDS011;1910;49.042;9.028;2023-07-22T06:47:58;5.00;;;3.27;;
3789;SDS011;1910;49.042;9.028;2023-07-22T06:50:23;5.37;;;2.97;;
3789;SDS011;1910;49.042;9.028;2023-07-22T06:52:49;4.23;;;3.60;;
3789;SDS011;1910;49.042;9.028;2023-07-22T06:55:15;6.23;;;4.20;;
3789;SDS011;1910;49.042;9.028;2023-07-22T06:57:42;10.30;;;3.57;;
3789;SDS011;1910;49.042;9.028;2023-07-22T07:00:08;4.97;;;3.63;;
3789;SDS011;1910;49.042;9.028;2023-07-22T07:02:37;4.50;;;3.43;;
3789;SDS011;1910;49.042;9.028;2023-07-22T07:05:02;4.80;;;3.40;;
3789;SDS011;1910;49.042;9.028;2023-07-22T07:07:29;6.07;;;3.57;;
3789;SDS011;1910;49.042;9.028;2023-07-22T07:09:55;5.20;;;4.27;;
3789;SDS011;1910;49.042;9.028;2023-07-22T07:12:21;7.00;;;4.40;;
3789;SDS011;1910;49.042;9.028;2023-07-22T07:14:49;4.80;;;3.87;;
3789;SDS011;1910;49.042;9.028;2023-07-22T07:17:16;4.50;;;3.80;;
3789;SDS011;1910;49.042;9.028;2023-07-22T07:19:43;4.23;;;3.57;;
3789;SDS011;1910;49.042;9.028;2023-07-22T07:22:09;6.30;;;3.37;;
3789;SDS011;1910;49.042;9.028;2023-07-22T07:24:35;3.90;;;3.23;;
3789;SDS011;1910;49.042;9.028;2023-07-22T07:27:01;4.00;;;3.43;;
3789;SDS011;1910;49.042;9.028;2023-07-22T07:29:27;4.87;;;3.47;;
3789;SDS011;1910;49.042;9.028;2023-07-22T07:31:53;4.43;;;3.20;;
3789;SDS011;1910;49.042;9.028;2023-07-22T07:34:19;3.93;;;3.40;;
3789;SDS011;1910;49.042;9.028;2023-07-22T07:36:45;3.83;;;3.53;;
3789;SDS011;1910;49.042;9.028;2023-07-22T07:39:12;3.77;;;3.10;;
3789;SDS011;1910;49.042;9.028;2023-07-22T07:41:38;3.07;;;2.73;;
3789;SDS011;1910;49.042;9.028;2023-07-22T07:44:07;5.40;;;4.00;;
3789;SDS011;1910;49.042;9.028;2023-07-22T07:46:32;4.80;;;2.47;;
3789;SDS011;1910;49.042;9.028;2023-07-22T07:48:59;5.07;;;2.80;;
3789;SDS011;1910;49.042;9.028;2023-07-22T07:51:26;4.60;;;2.90;;
3789;SDS011;1910;49.042;9.028;2023-07-22T07:53:52;3.40;;;2.67;;
3789;SDS011;1910;49.042;9.028;2023-07-22T07:56:18;6.70;;;2.63;;
3789;SDS011;1910;49.042;9.028;2023-07-22T07:58:45;5.23;;;3.07;;
3789;SDS011;1910;49.042;9.028;2023-07-22T08:01:12;4.10;;;3.00;;
3789;SDS011;1910;49.042;9.028;2023-07-22T08:03:41;5.27;;;2.70;;
3789;SDS011;1910;49.042;9.028;2023-07-22T08:06:08;6.20;;;2.80;;
3789;SDS011;1910;49.042;9.028;2023-07-22T08:08:35;3.57;;;2.70;;
3789;SDS011;1910;49.042;9.028;2023-07-22T08:11:12;3.73;;;2.70;;
3789;SDS011;1910;49.042;9.028;2023-07-22T08:13:39;7.83;;;2.80;;
3789;SDS011;1910;49.042;9.028;2023-07-22T08:16:07;4.80;;;3.40;;
3789;SDS011;1910;49.042;9.028;2023-07-22T08:18:33;3.97;;;2.57;;
3789;SDS011;1910;49.042;9.028;2023-07-22T08:21:00;2.77;;;2.13;;
3789;SDS011;1910;49.042;9.028;2023-07-22T08:23:31;4.33;;;2.53;;
3789;SDS011;1910;49.042;9.028;2023-07-22T08:25:57;3.70;;;2.63;;
3789;SDS011;1910;49.042;9.028;2023-07-22T08:28:23;3.77;;;2.17;;
3789;SDS011;1910;49.042;9.028;2023-07-22T08:30:49;3.47;;;2.30;;
3789;SDS011;1910;49.042;9.028;2023-07-22T08:33:19;3.37;;;2.53;;
3789;SDS011;1910;49.042;9.028;2023-07-22T08:35:45;8.87;;;2.77;;
3789;SDS011;1910;49.042;9.028;2023-07-22T08:38:13;4.70;;;2.63;;
3789;SDS011;1910;49.042;9.028;2023-07-22T08:40:39;2.87;;;2.00;;
3789;SDS011;1910;49.042;9.028;2023-07-22T08:43:06;2.63;;;2.43;;
3789;SDS011;1910;49.042;9.028;2023-07-22T08:45:34;2.67;;;2.47;;
3789;SDS011;1910;49.042;9.028;2023-07-22T08:48:04;4.10;;;2.47;;
3789;SDS011;1910;49.042;9.028;2023-07-22T08:50:34;3.70;;;2.50;;
3789;SDS011;1910;49.042;9.028;2023-07-22T08:53:08;5.40;;;2.63;;
3789;SDS011;1910;49.042;9.028;2023-07-22T08:55:35;4.20;;;2.37;;
3789;SDS011;1910;49.042;9.028;2023-07-22T08:58:08;4.07;;;2.53;;
3789;SDS011;1910;49.042;9.028;2023-07-22T09:00:34;3.80;;;1.93;;
3789;SDS011;1910;49.042;9.028;2023-07-22T09:03:00;2.60;;;2.00;;
3789;SDS011;1910;49.042;9.028;2023-07-22T09:05:27;2.00;;;1.80;;
3789;SDS011;1910;49.042;9.028;2023-07-22T09:07:53;2.67;;;1.80;;
3789;SDS011;1910;49.042;9.028;2023-07-22T09:10:20;3.87;;;2.13;;
3789;SDS011;1910;49.042;9.028;2023-07-22T09:12:47;4.10;;;1.83;;
3789;SDS011;1910;49.042;9.028;2023-07-22T09:15:12;2.00;;;1.70;;
3789;SDS011;1910;49.042;9.028;2023-07-22T09:17:38;2.03;;;1.60;;
3789;SDS011;1910;49.042;9.028;2023-07-22T09:20:05;3.80;;;2.90;;
3789;SDS011;1910;49.042;9.028;2023-07-22T09:22:32;3.07;;;1.60;;
3789;SDS011;1910;49.042;9.028;2023-07-22T09:25:14;4.77;;;2.00;;
3789;SDS011;1910;49.042;9.028;2023-07-22T09:27:54;1.97;;;1.77;;
3789;SDS011;1910;49.042;9.028;2023-07-22T09:30:27;3.17;;;1.90;;
3789;SDS011;1910;49.042;9.028;2023-07-22T09:32:55;2.20;;;1.87;;
3789;SDS011;1910;49.042;9.028;2023-07-22T09:35:29;4.10;;;2.20;;
3789;SDS011;1910;49.042;9.028;2023-07-22T09:37:56;4.27;;;1.90;;
3789;SDS011;1910;49.042;9.028;2023-07-22T09:40:24;3.00;;;1.90;;
3789;SDS011;1910;49.042;9.028;2023-07-22T09:42:52;2.90;;;2.27;;
3789;SDS011;1910;49.042;9.028;2023-07-22T09:45:19;2.50;;;1.73;;
3789;SDS011;1910;49.042;9.028;2023-07-22T09:47:48;1.73;;;1.53;;
3789;SDS011;1910;49.042;9.028;2023-07-22T09:50:22;5.60;;;2.23;;
3789;SDS011;1910;49.042;9.028;2023-07-22T09:52:50;5.20;;;1.83;;
3789;SDS011;1910;49.042;9.028;2023-07-22T09:55:16;2.80;;;1.73;;
3789;SDS011;1910;49.042;9.028;2023-07-22T09:57:44;6.53;;;2.67;;
3789;SDS011;1910;49.042;9.028;2023-07-22T10:00:12;2.93;;;1.83;;
3789;SDS011;1910;49.042;9.028;2023-07-22T10:02:43;2.17;;;1.70;;
3789;SDS011;1910;49.042;9.028;2023-07-22T10:05:14;1.67;;;1.40;;
3789;SDS011;1910;49.042;9.028;2023-07-22T10:07:52;2.03;;;1.27;;
3789;SDS011;1910;49.042;9.028;2023-07-22T10:10:20;6.00;;;1.50;;
3789;SDS011;1910;49.042;9.028;2023-07-22T10:15:18;1.70;;;1.30;;
3789;SDS011;1910;49.042;9.028;2023-07-22T10:17:44;2.53;;;1.60;;
3789;SDS011;1910;49.042;9.028;2023-07-22T10:20:11;4.00;;;1.60;;
3789;SDS011;1910;49.042;9.028;2023-07-22T10:22:41;2.77;;;1.37;;
3789;SDS011;1910;49.042;9.028;2023-07-22T10:25:10;2.17;;;1.60;;
3789;SDS011;1910;49.042;9.028;2023-07-22T10:27:43;2.27;;;1.37;;
3789;SDS011;1910;49.042;9.028;2023-07-22T10:30:10;2.20;;;1.80;;
3789;SDS011;1910;49.042;9.028;2023-07-22T10:32:38;2.60;;;1.90;;
3789;SDS011;1910;49.042;9.028;2023-07-22T10:35:05;4.33;;;1.80;;
3789;SDS011;1910;49.042;9.028;2023-07-22T10:37:40;2.80;;;1.90;;
3789;SDS011;1910;49.042;9.028;2023-07-22T10:40:16;4.30;;;1.83;;
3789;SDS011;1910;49.042;9.028;2023-07-22T10:42:51;2.00;;;1.80;;
3789;SDS011;1910;49.042;9.028;2023-07-22T10:45:33;4.90;;;2.13;;
3789;SDS011;1910;49.042;9.028;2023-07-22T10:48:09;2.23;;;1.30;;
3789;SDS011;1910;49.042;9.028;2023-07-22T10:50:46;3.10;;;2.20;;
3789;SDS011;1910;49.042;9.028;2023-07-22T11:07:04;10.17;;;2.43;;
3789;SDS011;1910;49.042;9.028;2023-07-22T11:12:07;2.70;;;1.93;;
3789;SDS011;1910;49.042;9.028;2023-07-22T11:14:39;2.87;;;1.83;;
3789;SDS011;1910;49.042;9.028;2023-07-22T11:17:12;2.03;;;1.50;;
3789;SDS011;1910;49.042;9.028;2023-07-22T11:19:43;2.00;;;1.63;;
3789;SDS011;1910;49.042;9.028;2023-07-22T11:22:09;3.73;;;1.60;;
3789;SDS011;1910;49.042;9.028;2023-07-22T11:24:35;1.90;;;1.67;;
3789;SDS011;1910;49.042;9.028;2023-07-22T11:27:04;3.37;;;2.13;;
3789;SDS011;1910;49.042;9.028;2023-07-22T11:29:31;4.07;;;1.93;;
3789;SDS011;1910;49.042;9.028;2023-07-22T11:31:57;2.70;;;1.93;;
3789;SDS011;1910;49.042;9.028;2023-07-22T11:34:23;2.00;;;1.70;;
3789;SDS011;1910;49.042;9.028;2023-07-22T11:37:01;3.77;;;2.00;;
3789;SDS011;1910;49.042;9.028;2023-07-22T11:39:27;3.27;;;2.23;;
3789;SDS011;1910;49.042;9.028;2023-07-22T11:41:57;3.13;;;2.40;;
3789;SDS011;1910;49.042;9.028;2023-07-22T11:44:29;4.20;;;2.00;;
3789;SDS011;1910;49.042;9.028;2023-07-22T11:46:57;2.50;;;1.50;;
3789;SDS011;1910;49.042;9.028;2023-07-22T11:52:17;3.23;;;2.17;;
3789;SDS011;1910;49.042;9.028;2023-07-22T11:54:43;3.70;;;2.23;;
3789;SDS011;1910;49.042;9.028;2023-07-22T11:57:14;3.70;;;2.20;;
3789;SDS011;1910;49.042;9.028;2023-07-22T12:02:14;8.87;;;2.33;;
3789;SDS011;1910;49.042;9.028;2023-07-22T12:04:51;2.43;;;1.83;;
3789;SDS011;1910;49.042;9.028;2023-07-22T12:07:27;3.40;;;2.13;;
3789;SDS011;1910;49.042;9.028;2023-07-22T12:09:58;2.93;;;1.83;;
3789;SDS011;1910;49.042;9.028;2023-07-22T12:12:35;5.10;;;2.33;;
3789;SDS011;1910;49.042;9.028;2023-07-22T12:15:10;6.40;;;1.80;;
3789;SDS011;1910;49.042;9.028;2023-07-22T12:17:44;4.80;;;1.83;;
3789;SDS011;1910;49.042;9.028;2023-07-22T12:20:27;2.90;;;2.13;;
3789;SDS011;1910;49.042;9.028;2023-07-22T12:22:55;3.60;;;2.20;;
3789;SDS011;1910;49.042;9.028;2023-07-22T12:25:21;2.40;;;1.70;;
3789;SDS011;1910;49.042;9.028;2023-07-22T12:27:48;3.67;;;2.50;;
3789;SDS011;1910;49.042;9.028;2023-07-22T12:30:13;4.20;;;2.43;;
3789;SDS011;1910;49.042;9.028;2023-07-22T12:32:40;4.40;;;2.07;;
3789;SDS011;1910;49.042;9.028;2023-07-22T12:35:06;2.50;;;2.30;;
3789;SDS011;1910;49.042;9.028;2023-07-22T12:37:32;3.80;;;2.20;;
3789;SDS011;1910;49.042;9.028;2023-07-22T12:39:58;5.53;;;1.97;;
3789;SDS011;1910;49.042;9.028;2023-07-22T12:42:23;2.40;;;2.17;;
3789;SDS011;1910;49.042;9.028;2023-07-22T12:44:49;3.20;;;1.97;;
3789;SDS011;1910;49.042;9.028;2023-07-22T12:47:14;6.00;;;2.30;;
3789;SDS011;1910;49.042;9.028;2023-07-22T12:49:40;2.80;;;1.87;;
3789;SDS011;1910;49.042;9.028;2023-07-22T12:52:07;2.37;;;1.77;;
3789;SDS011;1910;49.042;9.028;2023-07-22T12:54:37;2.50;;;2.10;;
3789;SDS011;1910;49.042;9.028;2023-07-22T12:57:02;3.13;;;2.10;;
3789;SDS011;1910;49.042;9.028;2023-07-22T12:59:28;3.67;;;2.23;;
3789;SDS011;1910;49.042;9.028;2023-07-22T13:01:54;4.27;;;1.90;;
3789;SDS011;1910;49.042;9.028;2023-07-22T13:04:20;2.87;;;2.00;;
3789;SDS011;1910;49.042;9.028;2023-07-22T13:06:46;3.53;;;2.43;;
3789;SDS011;1910;49.042;9.028;2023-07-22T13:09:11;1.97;;;1.77;;
3789;SDS011;1910;49.042;9.028;2023-07-22T13:11:37;2.70;;;1.87;;
3789;SDS011;1910;49.042;9.028;2023-07-22T13:14:03;3.80;;;2.47;;
3789;SDS011;1910;49.042;9.028;2023-07-22T13:16:29;2.57;;;2.17;;
3789;SDS011;1910;49.042;9.028;2023-07-22T13:18:55;4.00;;;2.30;;
3789;SDS011;1910;49.042;9.028;2023-07-22T13:21:21;2.63;;;2.33;;
3789;SDS011;1910;49.042;9.028;2023-07-22T13:23:46;3.07;;;2.13;;
3789;SDS011;1910;49.042;9.028;2023-07-22T13:26:13;4.10;;;2.10;;
3789;SDS011;1910;49.042;9.028;2023-07-22T13:28:39;3.40;;;2.63;;
3789;SDS011;1910;49.042;9.028;2023-07-22T13:31:05;2.77;;;1.90;;
3789;SDS011;1910;49.042;9.028;2023-07-22T13:33:31;3.30;;;2.20;;
3789;SDS011;1910;49.042;9.028;2023-07-22T13:35:57;4.27;;;2.27;;
3789;SDS011;1910;49.042;9.028;2023-07-22T13:38:22;3.13;;;2.47;;
3789;SDS011;1910;49.042;9.028;2023-07-22T13:40:48;2.40;;;2.00;;
3789;SDS011;1910;49.042;9.028;2023-07-22T13:43:14;3.43;;;2.13;;
3789;SDS011;1910;49.042;9.028;2023-07-22T13:45:40;4.60;;;1.90;;
3789;SDS011;1910;49.042;9.028;2023-07-22T13:48:06;2.27;;;1.90;;
3789;SDS011;1910;49.042;9.028;2023-07-22T13:50:32;7.33;;;3.20;;
3789;SDS011;1910;49.042;9.028;2023-07-22T13:52:57;3.70;;;2.20;;
3789;SDS011;1910;49.042;9.028;2023-07-22T13:55:23;3.20;;;1.97;;
3789;SDS011;1910;49.042;9.028;2023-07-22T13:57:49;5.07;;;3.30;;
3789;SDS011;1910;49.042;9.028;2023-07-22T14:00:14;4.77;;;2.97;;
3789;SDS011;1910;49.042;9.028;2023-07-22T14:02:40;3.27;;;2.97;;
3789;SDS011;1910;49.042;9.028;2023-07-22T14:05:06;4.60;;;2.70;;
3789;SDS011;1910;49.042;9.028;2023-07-22T14:07:32;3.27;;;2.97;;
3789;SDS011;1910;49.042;9.028;2023-07-22T14:09:58;3.00;;;2.47;;
3789;SDS011;1910;49.042;9.028;2023-07-22T14:12:24;3.47;;;2.00;;
3789;SDS011;1910;49.042;9.028;2023-07-22T14:14:49;4.20;;;2.80;;
3789;SDS011;1910;49.042;9.028;2023-07-22T14:17:15;2.60;;;2.17;;
3789;SDS011;1910;49.042;9.028;2023-07-22T14:19:41;4.50;;;2.50;;
3789;SDS011;1910;49.042;9.028;2023-07-22T14:22:06;4.20;;;2.60;;
3789;SDS011;1910;49.042;9.028;2023-07-22T14:24:33;2.43;;;2.07;;
3789;SDS011;1910;49.042;9.028;2023-07-22T14:26:59;3.07;;;2.10;;
3789;SDS011;1910;49.042;9.028;2023-07-22T14:29:25;3.07;;;2.13;;
3789;SDS011;1910;49.042;9.028;2023-07-22T14:31:50;3.20;;;2.33;;
3789;SDS011;1910;49.042;9.028;2023-07-22T14:34:16;5.90;;;2.97;;
3789;SDS011;1910;49.042;9.028;2023-07-22T14:36:42;3.57;;;3.17;;
3789;SDS011;1910;49.042;9.028;2023-07-22T14:39:08;3.10;;;2.57;;
3789;SDS011;1910;49.042;9.028;2023-07-22T14:41:34;3.90;;;2.70;;
3789;SDS011;1910;49.042;9.028;2023-07-22T14:44:00;3.70;;;2.60;;
3789;SDS011;1910;49.042;9.028;2023-07-22T14:46:25;4.63;;;2.10;;
3789;SDS011;1910;49.042;9.028;2023-07-22T14:48:51;7.40;;;2.57;;
3789;SDS011;1910;49.042;9.028;2023-07-22T14:51:16;4.10;;;2.60;;
3789;SDS011;1910;49.042;9.028;2023-07-22T14:53:42;4.80;;;2.67;;
3789;SDS011;1910;49.042;9.028;2023-07-22T14:56:08;7.33;;;2.90;;
3789;SDS011;1910;49.042;9.028;2023-07-22T14:58:33;4.50;;;2.57;;
3789;SDS011;1910;49.042;9.028;2023-07-22T15:00:59;3.80;;;2.57;;
3789;SDS011;1910;49.042;9.028;2023-07-22T15:03:25;3.50;;;2.70;;
3789;SDS011;1910;49.042;9.028;2023-07-22T15:05:50;3.60;;;2.10;;
3789;SDS011;1910;49.042;9.028;2023-07-22T15:08:16;4.40;;;2.27;;
3789;SDS011;1910;49.042;9.028;2023-07-22T15:10:41;5.27;;;2.63;;
3789;SDS011;1910;49.042;9.028;2023-07-22T15:13:07;2.70;;;2.27;;
3789;SDS011;1910;49.042;9.028;2023-07-22T15:15:32;4.43;;;2.60;;
3789;SDS011;1910;49.042;9.028;2023-07-22T15:17:58;3.60;;;2.60;;
3789;SDS011;1910;49.042;9.028;2023-07-22T15:20:23;7.23;;;2.40;;
3789;SDS011;1910;49.042;9.028;2023-07-22T15:22:49;6.10;;;2.87;;
3789;SDS011;1910;49.042;9.028;2023-07-22T15:25:15;4.00;;;2.50;;
3789;SDS011;1910;49.042;9.028;2023-07-22T15:27:41;4.33;;;2.20;;
3789;SDS011;1910;49.042;9.028;2023-07-22T15:30:08;3.70;;;2.30;;
3789;SDS011;1910;49.042;9.028;2023-07-22T15:32:35;2.90;;;2.60;;
3789;SDS011;1910;49.042;9.028;2023-07-22T15:35:01;6.50;;;2.80;;
3789;SDS011;1910;49.042;9.028;2023-07-22T15:37:26;4.73;;;2.33;;